sensor_id;sensor_type;location;lat;lon;timestamp;P1;durP1;ratioP1;P2;durP2;ratioP2
3343;SDS011;1685;53.104;8.228;2023-01-19T00:00:37;18.80;;;10.57;;
3343;SDS011;1685;53.104;8.228;2023-01-19T00:03:04;14.87;;;10.80;;
3343;SDS011;1685;53.104;8.228;2023-01-19T00:05:40;12.60;;;10.87;;
3343;SDS011;1685;53.104;8.228;2023-01-19T00:08:08;13.13;;;9.37;;
3343;SDS011;1685;53.104;8.228;2023-01-19T00:10:39;18.73;;;10.60;;
3343;SDS011;1685;53.104;8.228;2023-01-19T00:13:06;16.37;;;10.60;;
3343;SDS011;1685;53.104;8.228;2023-01-19T00:15:33;22.70;;;11.10;;
3343;SDS011;1685;53.104;8.228;2023-01-19T00:18:00;15.10;;;10.40;;
3343;SDS011;1685;53.104;8.228;2023-01-19T00:20:27;17.97;;;9.90;;
3343;SDS011;1685;53.104;8.228;2023-01-19T00:22:56;19.53;;;10.70;;
3343;SDS011;1685;53.104;8.228;2023-01-19T00:25:24;13.60;;;10.20;;
3343;SDS011;1685;53.104;8.228;2023-01-19T00:27:51;15.13;;;11.27;;
3343;SDS011;1685;53.104;8.228;2023-01-19T00:30:18;16.57;;;11.17;;
3343;SDS011;1685;53.104;8.228;2023-01-19T00:32:45;14.23;;;10.47;;
3343;SDS011;1685;53.104;8.228;2023-01-19T00:35:12;18.00;;;11.33;;
3343;SDS011;1685;53.104;8.228;2023-01-19T00:37:39;15.83;;;11.20;;
3343;SDS011;1685;53.104;8.228;2023-01-19T00:40:10;18.33;;;11.90;;
3343;SDS011;1685;53.104;8.228;2023-01-19T00:42:39;16.40;;;11.70;;
3343;SDS011;1685;53.104;8.228;2023-01-19T00:45:09;25.43;;;11.97;;
3343;SDS011;1685;53.104;8.228;2023-01-19T00:47:37;18.70;;;11.13;;
3343;SDS011;1685;53.104;8.228;2023-01-19T00:50:04;19.83;;;12.93;;
3343;SDS011;1685;53.104;8.228;2023-01-19T00:52:32;12.37;;;11.07;;
3343;SDS011;1685;53.104;8.228;2023-01-19T00:54:59;18.63;;;13.10;;
3343;SDS011;1685;53.104;8.228;2023-01-19T00:57:26;16.63;;;11.93;;
3343;SDS011;1685;53.104;8.228;2023-01-19T00:59:54;17.60;;;12.93;;
3343;SDS011;1685;53.104;8.228;2023-01-19T01:02:21;14.50;;;11.90;;
3343;SDS011;1685;53.104;8.228;2023-01-19T01:04:48;15.77;;;13.20;;
3343;SDS011;1685;53.104;8.228;2023-01-19T01:07:18;17.40;;;12.13;;
3343;SDS011;1685;53.104;8.228;2023-01-19T01:09:45;17.17;;;12.73;;
3343;SDS011;1685;53.104;8.228;2023-01-19T01:12:12;14.60;;;11.73;;
3343;SDS011;1685;53.104;8.228;2023-01-19T01:14:39;18.23;;;12.80;;
3343;SDS011;1685;53.104;8.228;2023-01-19T01:17:08;15.90;;;12.37;;
3343;SDS011;1685;53.104;8.228;2023-01-19T01:19:35;16.50;;;12.00;;
3343;SDS011;1685;53.104;8.228;2023-01-19T01:22:02;19.37;;;14.37;;
3343;SDS011;1685;53.104;8.228;2023-01-19T01:24:29;19.20;;;12.30;;
3343;SDS011;1685;53.104;8.228;2023-01-19T01:26:56;16.53;;;12.63;;
3343;SDS011;1685;53.104;8.228;2023-01-19T01:29:23;17.83;;;13.93;;
3343;SDS011;1685;53.104;8.228;2023-01-19T01:31:50;19.37;;;12.53;;
3343;SDS011;1685;53.104;8.228;2023-01-19T01:34:19;15.03;;;12.50;;
3343;SDS011;1685;53.104;8.228;2023-01-19T01:36:45;18.80;;;13.40;;
3343;SDS011;1685;53.104;8.228;2023-01-19T01:39:12;17.60;;;13.17;;
3343;SDS011;1685;53.104;8.228;2023-01-19T01:41:39;21.73;;;14.03;;
3343;SDS011;1685;53.104;8.228;2023-01-19T01:47:13;17.40;;;13.80;;
3343;SDS011;1685;53.104;8.228;2023-01-19T01:49:42;16.73;;;14.20;;
3343;SDS011;1685;53.104;8.228;2023-01-19T01:52:10;26.30;;;14.50;;
3343;SDS011;1685;53.104;8.228;2023-01-19T01:54:39;17.63;;;11.97;;
3343;SDS011;1685;53.104;8.228;2023-01-19T01:57:06;21.60;;;13.80;;
3343;SDS011;1685;53.104;8.228;2023-01-19T01:59:38;15.90;;;13.23;;
3343;SDS011;1685;53.104;8.228;2023-01-19T02:02:08;14.93;;;13.33;;
3343;SDS011;1685;53.104;8.228;2023-01-19T02:04:59;15.43;;;13.07;;
3343;SDS011;1685;53.104;8.228;2023-01-19T02:07:31;21.13;;;14.23;;
3343;SDS011;1685;53.104;8.228;2023-01-19T02:10:21;15.03;;;12.70;;
3343;SDS011;1685;53.104;8.228;2023-01-19T02:13:05;18.00;;;13.57;;
3343;SDS011;1685;53.104;8.228;2023-01-19T02:15:45;15.50;;;12.97;;
3343;SDS011;1685;53.104;8.228;2023-01-19T02:18:13;17.67;;;13.70;;
3343;SDS011;1685;53.104;8.228;2023-01-19T02:20:44;19.10;;;13.67;;
3343;SDS011;1685;53.104;8.228;2023-01-19T02:23:19;19.03;;;14.27;;
3343;SDS011;1685;53.104;8.228;2023-01-19T02:25:58;17.40;;;14.03;;
3343;SDS011;1685;53.104;8.228;2023-01-19T02:28:26;18.70;;;13.87;;
3343;SDS011;1685;53.104;8.228;2023-01-19T02:30:53;16.37;;;14.40;;
3343;SDS011;1685;53.104;8.228;2023-01-19T02:33:21;18.40;;;14.10;;
3343;SDS011;1685;53.104;8.228;2023-01-19T02:35:48;17.80;;;14.60;;
3343;SDS011;1685;53.104;8.228;2023-01-19T02:38:16;19.60;;;15.40;;
3343;SDS011;1685;53.104;8.228;2023-01-19T02:40:46;16.63;;;14.60;;
3343;SDS011;1685;53.104;8.228;2023-01-19T02:43:13;19.93;;;15.80;;
3343;SDS011;1685;53.104;8.228;2023-01-19T02:45:42;19.53;;;15.77;;
3343;SDS011;1685;53.104;8.228;2023-01-19T02:48:10;21.43;;;16.40;;
3343;SDS011;1685;53.104;8.228;2023-01-19T02:50:38;19.90;;;15.10;;
3343;SDS011;1685;53.104;8.228;2023-01-19T02:53:21;20.07;;;16.97;;
3343;SDS011;1685;53.104;8.228;2023-01-19T02:56:05;19.40;;;15.70;;
3343;SDS011;1685;53.104;8.228;2023-01-19T02:58:44;19.07;;;15.90;;
3343;SDS011;1685;53.104;8.228;2023-01-19T03:01:20;22.90;;;16.27;;
3343;SDS011;1685;53.104;8.228;2023-01-19T03:03:55;20.13;;;16.07;;
3343;SDS011;1685;53.104;8.228;2023-01-19T03:06:31;20.00;;;15.73;;
3343;SDS011;1685;53.104;8.228;2023-01-19T03:09:08;22.60;;;16.33;;
3343;SDS011;1685;53.104;8.228;2023-01-19T03:11:41;16.47;;;13.77;;
3343;SDS011;1685;53.104;8.228;2023-01-19T03:14:19;18.43;;;15.10;;
3343;SDS011;1685;53.104;8.228;2023-01-19T03:16:50;21.27;;;16.90;;
3343;SDS011;1685;53.104;8.228;2023-01-19T03:19:23;18.83;;;16.03;;
3343;SDS011;1685;53.104;8.228;2023-01-19T03:21:53;18.47;;;15.80;;
3343;SDS011;1685;53.104;8.228;2023-01-19T03:24:23;20.53;;;15.47;;
3343;SDS011;1685;53.104;8.228;2023-01-19T03:26:53;24.60;;;17.53;;
3343;SDS011;1685;53.104;8.228;2023-01-19T03:29:23;18.70;;;15.60;;
3343;SDS011;1685;53.104;8.228;2023-01-19T03:31:53;21.40;;;16.90;;
3343;SDS011;1685;53.104;8.228;2023-01-19T03:34:25;22.50;;;16.70;;
3343;SDS011;1685;53.104;8.228;2023-01-19T03:36:54;19.87;;;15.13;;
3343;SDS011;1685;53.104;8.228;2023-01-19T03:39:24;24.90;;;16.33;;
3343;SDS011;1685;53.104;8.228;2023-01-19T03:41:55;20.33;;;16.57;;
3343;SDS011;1685;53.104;8.228;2023-01-19T03:44:25;23.60;;;16.17;;
3343;SDS011;1685;53.104;8.228;2023-01-19T03:46:54;20.60;;;16.63;;
3343;SDS011;1685;53.104;8.228;2023-01-19T03:49:23;22.47;;;17.60;;
3343;SDS011;1685;53.104;8.228;2023-01-19T03:51:50;21.67;;;16.50;;
3343;SDS011;1685;53.104;8.228;2023-01-19T03:54:20;20.10;;;15.53;;
3343;SDS011;1685;53.104;8.228;2023-01-19T03:56:47;26.30;;;17.60;;
3343;SDS011;1685;53.104;8.228;2023-01-19T03:59:17;21.90;;;16.20;;
3343;SDS011;1685;53.104;8.228;2023-01-19T04:01:45;20.33;;;16.87;;
3343;SDS011;1685;53.104;8.228;2023-01-19T04:04:12;20.60;;;15.93;;
3343;SDS011;1685;53.104;8.228;2023-01-19T04:06:40;20.77;;;16.93;;
3343;SDS011;1685;53.104;8.228;2023-01-19T04:09:07;20.47;;;16.20;;
3343;SDS011;1685;53.104;8.228;2023-01-19T04:11:34;23.87;;;17.27;;
3343;SDS011;1685;53.104;8.228;2023-01-19T04:14:01;21.27;;;16.43;;
3343;SDS011;1685;53.104;8.228;2023-01-19T04:16:29;20.40;;;16.30;;
3343;SDS011;1685;53.104;8.228;2023-01-19T04:18:56;22.43;;;17.57;;
3343;SDS011;1685;53.104;8.228;2023-01-19T04:21:23;24.57;;;17.20;;
3343;SDS011;1685;53.104;8.228;2023-01-19T04:23:50;21.50;;;17.17;;
3343;SDS011;1685;53.104;8.228;2023-01-19T04:26:18;20.63;;;16.10;;
3343;SDS011;1685;53.104;8.228;2023-01-19T04:28:44;25.03;;;18.03;;
3343;SDS011;1685;53.104;8.228;2023-01-19T04:31:11;22.70;;;17.30;;
3343;SDS011;1685;53.104;8.228;2023-01-19T04:33:39;23.80;;;17.50;;
3343;SDS011;1685;53.104;8.228;2023-01-19T04:36:06;23.73;;;19.20;;
3343;SDS011;1685;53.104;8.228;2023-01-19T04:38:33;26.80;;;18.70;;
3343;SDS011;1685;53.104;8.228;2023-01-19T04:41:01;26.30;;;18.23;;
3343;SDS011;1685;53.104;8.228;2023-01-19T04:43:28;24.93;;;20.03;;
3343;SDS011;1685;53.104;8.228;2023-01-19T04:45:55;28.20;;;18.73;;
3343;SDS011;1685;53.104;8.228;2023-01-19T04:48:22;25.70;;;18.73;;
3343;SDS011;1685;53.104;8.228;2023-01-19T04:50:50;30.10;;;21.67;;
3343;SDS011;1685;53.104;8.228;2023-01-19T04:53:17;27.43;;;19.93;;
3343;SDS011;1685;53.104;8.228;2023-01-19T04:55:44;27.43;;;20.33;;
3343;SDS011;1685;53.104;8.228;2023-01-19T04:58:11;24.90;;;19.37;;
3343;SDS011;1685;53.104;8.228;2023-01-19T05:00:39;35.77;;;21.47;;
3343;SDS011;1685;53.104;8.228;2023-01-19T05:03:06;28.93;;;20.73;;
3343;SDS011;1685;53.104;8.228;2023-01-19T05:05:33;30.87;;;21.00;;
3343;SDS011;1685;53.104;8.228;2023-01-19T05:08:02;34.50;;;21.13;;
3343;SDS011;1685;53.104;8.228;2023-01-19T05:10:29;27.97;;;20.67;;
3343;SDS011;1685;53.104;8.228;2023-01-19T05:12:56;39.63;;;22.07;;
3343;SDS011;1685;53.104;8.228;2023-01-19T05:15:23;35.50;;;22.43;;
3343;SDS011;1685;53.104;8.228;2023-01-19T05:17:50;43.43;;;21.90;;
3343;SDS011;1685;53.104;8.228;2023-01-19T05:20:17;29.90;;;22.43;;
3343;SDS011;1685;53.104;8.228;2023-01-19T05:22:47;33.90;;;22.57;;
3343;SDS011;1685;53.104;8.228;2023-01-19T05:25:16;35.70;;;21.47;;
3343;SDS011;1685;53.104;8.228;2023-01-19T05:27:43;40.23;;;23.83;;
3343;SDS011;1685;53.104;8.228;2023-01-19T05:30:10;37.30;;;22.40;;
3343;SDS011;1685;53.104;8.228;2023-01-19T05:32:38;33.37;;;22.97;;
3343;SDS011;1685;53.104;8.228;2023-01-19T05:35:05;38.40;;;22.00;;
3343;SDS011;1685;53.104;8.228;2023-01-19T05:37:33;39.83;;;24.33;;
3343;SDS011;1685;53.104;8.228;2023-01-19T05:40:00;33.30;;;22.67;;
3343;SDS011;1685;53.104;8.228;2023-01-19T05:42:28;32.37;;;21.40;;
3343;SDS011;1685;53.104;8.228;2023-01-19T05:44:55;37.87;;;22.37;;
3343;SDS011;1685;53.104;8.228;2023-01-19T05:47:23;34.30;;;21.33;;
3343;SDS011;1685;53.104;8.228;2023-01-19T05:49:50;30.23;;;21.03;;
3343;SDS011;1685;53.104;8.228;2023-01-19T05:52:17;31.27;;;21.17;;
3343;SDS011;1685;53.104;8.228;2023-01-19T05:54:44;33.30;;;21.67;;
3343;SDS011;1685;53.104;8.228;2023-01-19T05:57:12;31.77;;;21.37;;
3343;SDS011;1685;53.104;8.228;2023-01-19T05:59:40;35.63;;;21.63;;
3343;SDS011;1685;53.104;8.228;2023-01-19T06:02:07;33.20;;;20.97;;
3343;SDS011;1685;53.104;8.228;2023-01-19T06:04:34;34.60;;;21.47;;
3343;SDS011;1685;53.104;8.228;2023-01-19T06:07:01;30.67;;;21.03;;
3343;SDS011;1685;53.104;8.228;2023-01-19T06:09:28;29.80;;;20.93;;
3343;SDS011;1685;53.104;8.228;2023-01-19T06:11:55;34.27;;;22.10;;
3343;SDS011;1685;53.104;8.228;2023-01-19T06:14:23;32.93;;;20.57;;
3343;SDS011;1685;53.104;8.228;2023-01-19T06:16:52;39.13;;;23.70;;
3343;SDS011;1685;53.104;8.228;2023-01-19T06:19:19;30.53;;;20.90;;
3343;SDS011;1685;53.104;8.228;2023-01-19T06:21:47;31.10;;;21.00;;
3343;SDS011;1685;53.104;8.228;2023-01-19T06:24:16;34.53;;;21.37;;
3343;SDS011;1685;53.104;8.228;2023-01-19T06:26:43;30.93;;;21.07;;
3343;SDS011;1685;53.104;8.228;2023-01-19T06:29:10;29.87;;;20.50;;
3343;SDS011;1685;53.104;8.228;2023-01-19T06:31:38;37.70;;;21.83;;
3343;SDS011;1685;53.104;8.228;2023-01-19T06:34:07;33.63;;;22.03;;
3343;SDS011;1685;53.104;8.228;2023-01-19T06:36:33;31.10;;;21.33;;
3343;SDS011;1685;53.104;8.228;2023-01-19T06:39:01;28.57;;;20.90;;
3343;SDS011;1685;53.104;8.228;2023-01-19T06:41:29;28.07;;;21.10;;
3343;SDS011;1685;53.104;8.228;2023-01-19T06:43:56;34.40;;;21.17;;
3343;SDS011;1685;53.104;8.228;2023-01-19T06:46:23;32.53;;;21.80;;
3343;SDS011;1685;53.104;8.228;2023-01-19T06:48:51;35.10;;;21.53;;
3343;SDS011;1685;53.104;8.228;2023-01-19T06:51:19;33.70;;;21.50;;
3343;SDS011;1685;53.104;8.228;2023-01-19T06:53:47;33.17;;;21.90;;
3343;SDS011;1685;53.104;8.228;2023-01-19T06:56:14;29.47;;;19.77;;
3343;SDS011;1685;53.104;8.228;2023-01-19T06:58:41;28.73;;;19.63;;
3343;SDS011;1685;53.104;8.228;2023-01-19T07:01:08;29.03;;;19.90;;
3343;SDS011;1685;53.104;8.228;2023-01-19T07:03:35;29.00;;;21.33;;
3343;SDS011;1685;53.104;8.228;2023-01-19T07:06:03;32.03;;;20.73;;
3343;SDS011;1685;53.104;8.228;2023-01-19T07:08:33;28.10;;;20.37;;
3343;SDS011;1685;53.104;8.228;2023-01-19T07:11:00;36.30;;;21.30;;
3343;SDS011;1685;53.104;8.228;2023-01-19T07:13:28;27.30;;;19.13;;
3343;SDS011;1685;53.104;8.228;2023-01-19T07:15:56;38.20;;;21.23;;
3343;SDS011;1685;53.104;8.228;2023-01-19T07:18:23;40.87;;;20.07;;
3343;SDS011;1685;53.104;8.228;2023-01-19T07:20:50;33.53;;;21.70;;
3343;SDS011;1685;53.104;8.228;2023-01-19T07:23:16;25.50;;;19.40;;
3343;SDS011;1685;53.104;8.228;2023-01-19T07:25:45;28.43;;;20.20;;
3343;SDS011;1685;53.104;8.228;2023-01-19T07:28:12;32.60;;;21.23;;
3343;SDS011;1685;53.104;8.228;2023-01-19T07:30:40;30.70;;;21.67;;
3343;SDS011;1685;53.104;8.228;2023-01-19T07:33:07;28.87;;;20.37;;
3343;SDS011;1685;53.104;8.228;2023-01-19T07:35:35;30.50;;;20.90;;
3343;SDS011;1685;53.104;8.228;2023-01-19T07:38:02;30.20;;;19.63;;
3343;SDS011;1685;53.104;8.228;2023-01-19T07:40:29;28.97;;;20.10;;
3343;SDS011;1685;53.104;8.228;2023-01-19T07:42:59;30.50;;;21.47;;
3343;SDS011;1685;53.104;8.228;2023-01-19T07:45:25;34.30;;;21.43;;
3343;SDS011;1685;53.104;8.228;2023-01-19T07:47:52;34.07;;;21.80;;
3343;SDS011;1685;53.104;8.228;2023-01-19T07:50:19;33.27;;;22.13;;
3343;SDS011;1685;53.104;8.228;2023-01-19T07:52:49;35.50;;;22.70;;
3343;SDS011;1685;53.104;8.228;2023-01-19T07:55:17;31.27;;;22.00;;
3343;SDS011;1685;53.104;8.228;2023-01-19T07:57:46;30.53;;;21.97;;
3343;SDS011;1685;53.104;8.228;2023-01-19T08:00:16;29.87;;;19.00;;
3343;SDS011;1685;53.104;8.228;2023-01-19T08:02:45;38.13;;;21.67;;
3343;SDS011;1685;53.104;8.228;2023-01-19T08:05:14;32.57;;;21.90;;
3343;SDS011;1685;53.104;8.228;2023-01-19T08:07:41;30.73;;;20.50;;
3343;SDS011;1685;53.104;8.228;2023-01-19T08:10:09;30.30;;;20.20;;
3343;SDS011;1685;53.104;8.228;2023-01-19T08:12:36;34.43;;;23.37;;
3343;SDS011;1685;53.104;8.228;2023-01-19T08:15:04;30.20;;;21.37;;
3343;SDS011;1685;53.104;8.228;2023-01-19T08:17:32;31.13;;;21.50;;
3343;SDS011;1685;53.104;8.228;2023-01-19T08:19:59;29.40;;;20.77;;
3343;SDS011;1685;53.104;8.228;2023-01-19T08:22:26;37.70;;;24.60;;
3343;SDS011;1685;53.104;8.228;2023-01-19T08:24:53;31.23;;;20.40;;
3343;SDS011;1685;53.104;8.228;2023-01-19T08:27:22;35.03;;;23.70;;
3343;SDS011;1685;53.104;8.228;2023-01-19T08:29:49;39.47;;;26.00;;
3343;SDS011;1685;53.104;8.228;2023-01-19T08:32:18;27.37;;;19.90;;
3343;SDS011;1685;53.104;8.228;2023-01-19T08:34:46;30.60;;;20.77;;
3343;SDS011;1685;53.104;8.228;2023-01-19T08:37:13;25.57;;;18.43;;
3343;SDS011;1685;53.104;8.228;2023-01-19T08:39:40;27.13;;;20.20;;
3343;SDS011;1685;53.104;8.228;2023-01-19T08:42:07;38.53;;;21.33;;
3343;SDS011;1685;53.104;8.228;2023-01-19T08:44:34;30.00;;;21.20;;
3343;SDS011;1685;53.104;8.228;2023-01-19T08:47:01;41.23;;;25.93;;
3343;SDS011;1685;53.104;8.228;2023-01-19T08:49:28;29.23;;;21.50;;
3343;SDS011;1685;53.104;8.228;2023-01-19T08:51:56;29.42;;;17.83;;
3343;SDS011;1685;53.104;8.228;2023-01-19T08:54:24;28.60;;;19.50;;
3343;SDS011;1685;53.104;8.228;2023-01-19T08:56:51;26.77;;;19.63;;
3343;SDS011;1685;53.104;8.228;2023-01-19T08:59:18;26.40;;;15.60;;
3343;SDS011;1685;53.104;8.228;2023-01-19T09:01:45;25.23;;;17.20;;
3343;SDS011;1685;53.104;8.228;2023-01-19T09:04:12;25.87;;;18.13;;
3343;SDS011;1685;53.104;8.228;2023-01-19T09:06:39;22.40;;;16.93;;
3343;SDS011;1685;53.104;8.228;2023-01-19T09:09:07;19.93;;;15.07;;
3343;SDS011;1685;53.104;8.228;2023-01-19T09:11:34;19.37;;;14.40;;
3343;SDS011;1685;53.104;8.228;2023-01-19T09:14:02;22.27;;;15.93;;
3343;SDS011;1685;53.104;8.228;2023-01-19T09:16:29;22.93;;;15.80;;
3343;SDS011;1685;53.104;8.228;2023-01-19T09:18:56;24.53;;;14.70;;
3343;SDS011;1685;53.104;8.228;2023-01-19T09:21:23;20.47;;;15.70;;
3343;SDS011;1685;53.104;8.228;2023-01-19T09:23:50;24.53;;;14.87;;
3343;SDS011;1685;53.104;8.228;2023-01-19T09:26:20;28.67;;;16.10;;
3343;SDS011;1685;53.104;8.228;2023-01-19T09:28:47;19.20;;;14.80;;
3343;SDS011;1685;53.104;8.228;2023-01-19T09:31:14;20.60;;;14.03;;
3343;SDS011;1685;53.104;8.228;2023-01-19T09:33:41;26.67;;;17.10;;
3343;SDS011;1685;53.104;8.228;2023-01-19T09:36:08;21.87;;;12.97;;
3343;SDS011;1685;53.104;8.228;2023-01-19T09:38:35;16.00;;;12.80;;
3343;SDS011;1685;53.104;8.228;2023-01-19T09:41:03;21.23;;;12.97;;
3343;SDS011;1685;53.104;8.228;2023-01-19T09:43:41;22.77;;;13.43;;
3343;SDS011;1685;53.104;8.228;2023-01-19T09:46:12;18.00;;;12.40;;
3343;SDS011;1685;53.104;8.228;2023-01-19T09:48:42;18.07;;;11.77;;
3343;SDS011;1685;53.104;8.228;2023-01-19T09:51:12;16.83;;;12.20;;
3343;SDS011;1685;53.104;8.228;2023-01-19T09:53:45;14.10;;;10.27;;
3343;SDS011;1685;53.104;8.228;2023-01-19T09:56:22;21.60;;;11.53;;
3343;SDS011;1685;53.104;8.228;2023-01-19T09:58:51;15.63;;;11.40;;
3343;SDS011;1685;53.104;8.228;2023-01-19T10:01:31;13.90;;;10.63;;
3343;SDS011;1685;53.104;8.228;2023-01-19T10:04:10;15.90;;;9.93;;
3343;SDS011;1685;53.104;8.228;2023-01-19T10:06:51;15.20;;;11.27;;
3343;SDS011;1685;53.104;8.228;2023-01-19T10:09:23;15.90;;;9.10;;
3343;SDS011;1685;53.104;8.228;2023-01-19T10:11:56;12.33;;;9.00;;
3343;SDS011;1685;53.104;8.228;2023-01-19T10:14:35;13.00;;;10.03;;
3343;SDS011;1685;53.104;8.228;2023-01-19T10:17:11;8.90;;;6.70;;
3343;SDS011;1685;53.104;8.228;2023-01-19T10:19:46;12.40;;;7.73;;
3343;SDS011;1685;53.104;8.228;2023-01-19T10:22:18;13.97;;;6.27;;
3343;SDS011;1685;53.104;8.228;2023-01-19T10:24:46;10.00;;;4.33;;
3343;SDS011;1685;53.104;8.228;2023-01-19T10:27:17;7.50;;;3.90;;
3343;SDS011;1685;53.104;8.228;2023-01-19T10:29:49;5.80;;;3.20;;
3343;SDS011;1685;53.104;8.228;2023-01-19T10:32:23;3.50;;;3.20;;
3343;SDS011;1685;53.104;8.228;2023-01-19T10:34:52;7.20;;;3.53;;
3343;SDS011;1685;53.104;8.228;2023-01-19T10:37:24;10.80;;;5.00;;
3343;SDS011;1685;53.104;8.228;2023-01-19T10:39:55;10.43;;;3.60;;
3343;SDS011;1685;53.104;8.228;2023-01-19T10:42:26;4.53;;;3.70;;
3343;SDS011;1685;53.104;8.228;2023-01-19T10:44:56;5.50;;;2.83;;
3343;SDS011;1685;53.104;8.228;2023-01-19T10:47:25;4.97;;;3.50;;
3343;SDS011;1685;53.104;8.228;2023-01-19T10:49:56;6.27;;;3.07;;
3343;SDS011;1685;53.104;8.228;2023-01-19T10:52:25;7.13;;;4.73;;
3343;SDS011;1685;53.104;8.228;2023-01-19T10:54:55;9.17;;;3.77;;
3343;SDS011;1685;53.104;8.228;2023-01-19T10:57:25;5.10;;;3.37;;
3343;SDS011;1685;53.104;8.228;2023-01-19T10:59:57;7.93;;;3.57;;
3343;SDS011;1685;53.104;8.228;2023-01-19T11:02:24;7.20;;;3.63;;
3343;SDS011;1685;53.104;8.228;2023-01-19T11:04:53;19.20;;;5.60;;
3343;SDS011;1685;53.104;8.228;2023-01-19T11:07:22;10.70;;;3.73;;
3343;SDS011;1685;53.104;8.228;2023-01-19T11:10:10;4.20;;;2.63;;
3343;SDS011;1685;53.104;8.228;2023-01-19T11:12:45;3.33;;;3.03;;
3343;SDS011;1685;53.104;8.228;2023-01-19T11:15:22;5.63;;;3.40;;
3343;SDS011;1685;53.104;8.228;2023-01-19T11:17:50;9.77;;;3.20;;
3343;SDS011;1685;53.104;8.228;2023-01-19T11:20:18;8.90;;;3.30;;
3343;SDS011;1685;53.104;8.228;2023-01-19T11:22:47;10.00;;;2.87;;
3343;SDS011;1685;53.104;8.228;2023-01-19T11:25:21;4.23;;;2.40;;
3343;SDS011;1685;53.104;8.228;2023-01-19T11:27:53;7.47;;;3.50;;
3343;SDS011;1685;53.104;8.228;2023-01-19T11:30:23;10.93;;;3.00;;
3343;SDS011;1685;53.104;8.228;2023-01-19T11:32:50;8.27;;;3.03;;
3343;SDS011;1685;53.104;8.228;2023-01-19T11:35:31;3.63;;;1.90;;
3343;SDS011;1685;53.104;8.228;2023-01-19T11:38:06;8.20;;;2.60;;
3343;SDS011;1685;53.104;8.228;2023-01-19T11:40:41;11.20;;;2.90;;
3343;SDS011;1685;53.104;8.228;2023-01-19T11:43:16;11.90;;;2.77;;
3343;SDS011;1685;53.104;8.228;2023-01-19T11:45:44;15.50;;;2.57;;
3343;SDS011;1685;53.104;8.228;2023-01-19T11:48:14;11.77;;;3.10;;
3343;SDS011;1685;53.104;8.228;2023-01-19T11:50:47;15.13;;;3.47;;
3343;SDS011;1685;53.104;8.228;2023-01-19T11:53:16;14.10;;;3.10;;
3343;SDS011;1685;53.104;8.228;2023-01-19T11:55:49;12.63;;;2.90;;
3343;SDS011;1685;53.104;8.228;2023-01-19T11:58:19;12.33;;;2.30;;
3343;SDS011;1685;53.104;8.228;2023-01-19T12:00:48;11.37;;;2.00;;
3343;SDS011;1685;53.104;8.228;2023-01-19T12:03:21;4.83;;;2.20;;
3343;SDS011;1685;53.104;8.228;2023-01-19T12:05:51;10.93;;;2.63;;
3343;SDS011;1685;53.104;8.228;2023-01-19T12:08:22;9.10;;;2.33;;
3343;SDS011;1685;53.104;8.228;2023-01-19T12:10:54;5.40;;;2.30;;
3343;SDS011;1685;53.104;8.228;2023-01-19T12:13:25;19.40;;;2.97;;
3343;SDS011;1685;53.104;8.228;2023-01-19T12:15:56;5.23;;;2.70;;
3343;SDS011;1685;53.104;8.228;2023-01-19T12:18:27;10.10;;;3.30;;
3343;SDS011;1685;53.104;8.228;2023-01-19T12:20:58;11.40;;;3.13;;
3343;SDS011;1685;53.104;8.228;2023-01-19T12:23:30;7.50;;;2.53;;
3343;SDS011;1685;53.104;8.228;2023-01-19T12:26:18;8.80;;;2.80;;
3343;SDS011;1685;53.104;8.228;2023-01-19T12:28:52;7.97;;;2.20;;
3343;SDS011;1685;53.104;8.228;2023-01-19T12:31:23;10.10;;;2.63;;
3343;SDS011;1685;53.104;8.228;2023-01-19T12:33:50;10.63;;;2.50;;
3343;SDS011;1685;53.104;8.228;2023-01-19T12:39:00;12.30;;;2.53;;
3343;SDS011;1685;53.104;8.228;2023-01-19T12:41:29;4.67;;;1.80;;
3343;SDS011;1685;53.104;8.228;2023-01-19T12:46:56;7.00;;;3.00;;
3343;SDS011;1685;53.104;8.228;2023-01-19T12:49:28;22.77;;;2.40;;
3343;SDS011;1685;53.104;8.228;2023-01-19T12:52:09;5.20;;;2.63;;
3343;SDS011;1685;53.104;8.228;2023-01-19T12:54:54;3.63;;;2.30;;
3343;SDS011;1685;53.104;8.228;2023-01-19T12:57:25;6.23;;;1.90;;
3343;SDS011;1685;53.104;8.228;2023-01-19T12:59:56;3.80;;;2.33;;
3343;SDS011;1685;53.104;8.228;2023-01-19T13:05:18;8.50;;;2.23;;
3343;SDS011;1685;53.104;8.228;2023-01-19T13:13:39;13.97;;;2.97;;
3343;SDS011;1685;53.104;8.228;2023-01-19T13:19:22;7.73;;;6.73;;
3343;SDS011;1685;53.104;8.228;2023-01-19T13:25:13;5.03;;;1.50;;
3343;SDS011;1685;53.104;8.228;2023-01-19T13:27:52;5.70;;;1.63;;
3343;SDS011;1685;53.104;8.228;2023-01-19T13:30:19;10.70;;;2.30;;
3343;SDS011;1685;53.104;8.228;2023-01-19T13:32:50;7.00;;;1.93;;
3343;SDS011;1685;53.104;8.228;2023-01-19T13:35:19;11.90;;;1.90;;
3343;SDS011;1685;53.104;8.228;2023-01-19T13:37:47;11.77;;;2.27;;
3343;SDS011;1685;53.104;8.228;2023-01-19T13:40:15;12.70;;;1.97;;
3343;SDS011;1685;53.104;8.228;2023-01-19T13:42:43;4.77;;;1.77;;
3343;SDS011;1685;53.104;8.228;2023-01-19T13:45:15;8.03;;;1.60;;
3343;SDS011;1685;53.104;8.228;2023-01-19T13:47:48;7.88;;;2.05;;
3343;SDS011;1685;53.104;8.228;2023-01-19T13:50:18;9.17;;;3.43;;
3343;SDS011;1685;53.104;8.228;2023-01-19T13:52:47;7.13;;;2.97;;
3343;SDS011;1685;53.104;8.228;2023-01-19T13:55:17;4.20;;;2.53;;
3343;SDS011;1685;53.104;8.228;2023-01-19T13:57:46;7.27;;;2.10;;
3343;SDS011;1685;53.104;8.228;2023-01-19T14:00:15;9.20;;;2.63;;
3343;SDS011;1685;53.104;8.228;2023-01-19T14:02:50;5.10;;;1.80;;
3343;SDS011;1685;53.104;8.228;2023-01-19T14:05:24;5.07;;;2.10;;
3343;SDS011;1685;53.104;8.228;2023-01-19T14:08:04;5.53;;;1.90;;
3343;SDS011;1685;53.104;8.228;2023-01-19T14:10:37;9.73;;;1.57;;
3343;SDS011;1685;53.104;8.228;2023-01-19T14:13:11;9.27;;;1.40;;
3343;SDS011;1685;53.104;8.228;2023-01-19T14:15:39;6.33;;;1.67;;
3343;SDS011;1685;53.104;8.228;2023-01-19T14:18:07;6.50;;;2.20;;
3343;SDS011;1685;53.104;8.228;2023-01-19T14:20:37;3.87;;;1.77;;
3343;SDS011;1685;53.104;8.228;2023-01-19T14:23:05;6.93;;;1.40;;
3343;SDS011;1685;53.104;8.228;2023-01-19T14:25:52;5.80;;;2.17;;
3343;SDS011;1685;53.104;8.228;2023-01-19T14:28:26;7.20;;;2.13;;
3343;SDS011;1685;53.104;8.228;2023-01-19T14:31:15;5.27;;;1.87;;
3343;SDS011;1685;53.104;8.228;2023-01-19T14:33:45;3.70;;;1.60;;
3343;SDS011;1685;53.104;8.228;2023-01-19T14:36:19;4.93;;;1.80;;
3343;SDS011;1685;53.104;8.228;2023-01-19T14:38:58;4.07;;;1.90;;
3343;SDS011;1685;53.104;8.228;2023-01-19T14:41:26;3.40;;;1.63;;
3343;SDS011;1685;53.104;8.228;2023-01-19T14:44:01;3.70;;;1.50;;
3343;SDS011;1685;53.104;8.228;2023-01-19T14:46:28;1.83;;;1.53;;
3343;SDS011;1685;53.104;8.228;2023-01-19T14:48:57;2.70;;;1.43;;
3343;SDS011;1685;53.104;8.228;2023-01-19T14:51:28;3.93;;;1.60;;
3343;SDS011;1685;53.104;8.228;2023-01-19T14:53:56;1.90;;;1.80;;
3343;SDS011;1685;53.104;8.228;2023-01-19T14:56:26;5.13;;;2.00;;
3343;SDS011;1685;53.104;8.228;2023-01-19T14:58:55;2.20;;;1.97;;
3343;SDS011;1685;53.104;8.228;2023-01-19T15:01:22;3.60;;;2.33;;
3343;SDS011;1685;53.104;8.228;2023-01-19T15:03:52;4.27;;;2.37;;
3343;SDS011;1685;53.104;8.228;2023-01-19T15:06:20;2.43;;;2.23;;
3343;SDS011;1685;53.104;8.228;2023-01-19T15:08:49;2.90;;;2.00;;
3343;SDS011;1685;53.104;8.228;2023-01-19T15:11:18;4.07;;;1.70;;
3343;SDS011;1685;53.104;8.228;2023-01-19T15:13:48;5.50;;;2.20;;
3343;SDS011;1685;53.104;8.228;2023-01-19T15:16:15;2.20;;;2.03;;
3343;SDS011;1685;53.104;8.228;2023-01-19T15:18:42;3.03;;;1.90;;
3343;SDS011;1685;53.104;8.228;2023-01-19T15:21:10;6.37;;;2.20;;
3343;SDS011;1685;53.104;8.228;2023-01-19T15:23:39;3.60;;;2.20;;
3343;SDS011;1685;53.104;8.228;2023-01-19T15:26:09;5.43;;;2.13;;
3343;SDS011;1685;53.104;8.228;2023-01-19T15:28:40;7.53;;;2.40;;
3343;SDS011;1685;53.104;8.228;2023-01-19T15:31:08;5.63;;;2.13;;
3343;SDS011;1685;53.104;8.228;2023-01-19T15:33:38;4.20;;;1.90;;